createdAt,value
2022-10-02T00:11:05.768Z,98126.72
2022-10-02T00:11:47.717Z,98118.53
2022-10-02T00:12:23.586Z,98129.41
2022-10-02T00:13:06.159Z,98127.22
2022-10-02T00:54:03.398Z,98211.41
2022-10-02T00:55:01.167Z,98218.81
2022-10-02T00:56:49.708Z,98208.97
2022-10-02T00:57:50.538Z,98211.84
2022-10-02T01:01:06.200Z,98222.44
2022-10-02T01:38:14.200Z,98249.47
2022-10-02T01:38:52.600Z,98242.94
2022-10-02T01:39:34.078Z,98236.84
2022-10-02T01:43:06.856Z,98249.06
2022-10-02T01:43:41.927Z,98249.72
2022-10-02T01:44:26.110Z,98254.13
2022-10-02T01:45:01.652Z,98248.97
2022-10-02T01:45:59.524Z,98255.56
2022-10-02T01:55:20.624Z,98255.37
2022-10-02T01:56:37.093Z,98255.37
2022-10-02T01:58:01.223Z,98263.78
2022-10-02T01:58:54.811Z,98267.28
2022-10-02T01:59:46.054Z,98276.03
2022-10-02T02:00:20.438Z,98268.63
2022-10-02T02:01:05.300Z,98277.28
2022-10-02T02:01:53.120Z,98275.94
2022-10-02T02:02:45.900Z,98265.97
2022-10-02T02:32:32.277Z,98290.72
2022-10-02T02:33:54.919Z,98289.50
2022-10-02T02:41:38.176Z,98297.59
2022-10-02T02:43:27.589Z,98293.44
2022-10-02T02:44:01.847Z,98305.50
2022-10-02T02:44:41.503Z,98311.13
2022-10-02T02:45:38.927Z,98303.28
2022-10-02T03:13:24.560Z,98332.44
2022-10-02T03:26:08.271Z,98351.88
2022-10-02T03:30:05.745Z,98357.91
2022-10-02T03:31:04.704Z,98358.50
2022-10-02T03:32:32.208Z,98362.47
2022-10-02T03:52:07.463Z,98380.81
2022-10-02T04:13:04.121Z,98407.00
2022-10-02T04:13:41.273Z,98413.16
2022-10-02T04:14:18.516Z,98415.75
2022-10-02T04:14:58.125Z,98407.06
2022-10-02T04:16:02.182Z,98415.59
2022-10-02T04:17:15.298Z,98412.19
2022-10-02T04:17:58.754Z,98416.84
2022-10-02T04:18:38.101Z,98409.84
2022-10-02T04:19:26.282Z,98416.28
2022-10-02T04:20:09.846Z,98416.66
2022-10-02T04:21:51.020Z,98418.44
2022-10-02T04:22:48.180Z,98422.25
2022-10-02T04:23:23.471Z,98423.53
2022-10-02T04:24:49.171Z,98438.50
2022-10-02T04:26:14.504Z,98421.09
2022-10-02T04:27:06.332Z,98420.78
2022-10-02T04:34:40.028Z,98424.78
2022-10-02T04:58:32.543Z,98462.06
2022-10-02T04:59:31.936Z,98466.88
2022-10-02T05:00:13.389Z,98470.31
2022-10-02T05:01:21.970Z,98471.72
2022-10-02T05:02:05.336Z,98469.63
2022-10-02T05:03:04.166Z,98475.81
2022-10-02T05:04:18.964Z,98470.44
2022-10-02T05:05:54.344Z,98477.00
2022-10-02T05:06:52.126Z,98473.16
2022-10-02T05:07:30.423Z,98472.81
2022-10-02T05:09:32.537Z,98480.66
2022-10-02T05:11:43.372Z,98483.38
2022-10-02T05:12:37.547Z,98485.31
2022-10-02T05:13:32.314Z,98482.91
2022-10-02T05:14:32.835Z,98483.81
2022-10-02T05:33:34.489Z,98490.91
2022-10-02T05:34:40.614Z,98490.91
2022-10-02T05:35:28.585Z,98499.19
2022-10-02T05:36:19.135Z,98500.97
2022-10-02T05:37:18.739Z,98499.53
2022-10-02T05:40:10.708Z,98498.91
2022-10-02T05:41:27.724Z,98497.75
2022-10-02T05:42:22.020Z,98503.91
2022-10-02T05:43:39.262Z,98501.94
2022-10-02T05:44:24.491Z,98503.41
2022-10-02T05:45:05.697Z,98502.41
2022-10-02T05:45:44.624Z,98501.69
2022-10-02T05:46:23.880Z,98504.59
2022-10-02T05:47:45.186Z,98500.66
2022-10-02T05:48:27.929Z,98499.94
2022-10-02T05:49:06.630Z,98496.69
2022-10-02T05:49:46.535Z,98504.31
2022-10-02T05:50:20.309Z,98503.47
2022-10-02T06:17:12.885Z,98547.56
2022-10-02T06:17:56.519Z,98547.56
2022-10-02T06:18:42.055Z,98545.91
2022-10-02T06:19:30.148Z,98552.16
2022-10-02T06:20:49.462Z,98553.34
2022-10-02T06:21:49.838Z,98549.25
2022-10-02T06:23:02.955Z,98563.09
2022-10-02T06:23:20.783Z,98564.91
2022-10-02T06:24:03.643Z,98556.03
2022-10-02T07:03:44.840Z,98631.81
2022-10-02T07:04:29.965Z,98623.09
2022-10-02T08:04:57.815Z,98647.44
2022-10-02T08:05:18.322Z,98647.44
2022-10-02T08:05:58.182Z,98650.59
2022-10-02T08:06:32.070Z,98652.09
2022-10-02T08:07:11.701Z,98654.31
2022-10-02T08:08:08.661Z,98655.47
2022-10-02T08:09:22.035Z,98650.00
2022-10-02T08:09:54.893Z,98660.59
2022-10-02T08:11:07.946Z,98654.53
2022-10-02T08:12:26.573Z,98655.25
2022-10-02T08:13:21.544Z,98657.28
2022-10-02T08:16:56.028Z,98666.25
2022-10-02T08:18:30.003Z,98666.25
2022-10-02T08:18:44.745Z,98672.00
2022-10-02T08:19:28.007Z,98671.47
2022-10-02T08:20:53.929Z,98660.25
2022-10-02T08:21:10.472Z,98670.62
2022-10-02T08:22:03.610Z,98662.75
2022-10-02T08:22:54.002Z,98660.22
2022-10-02T08:24:42.598Z,98659.19
2022-10-02T08:29:04.552Z,98664.53
2022-10-02T08:30:06.923Z,98664.53
2022-10-02T08:30:45.893Z,98675.44
2022-10-02T08:31:44.079Z,98684.44
2022-10-02T08:32:00.874Z,98671.41
2022-10-02T08:34:03.981Z,98672.56
2022-10-02T08:35:08.349Z,98666.28
2022-10-02T08:36:16.666Z,98665.75
2022-10-02T08:52:45.513Z,98681.06
2022-10-02T08:53:52.811Z,98681.06
2022-10-02T08:55:22.652Z,98669.25
2022-10-02T08:56:30.030Z,98664.53
2022-10-02T08:57:24.296Z,98675.41
2022-10-02T08:58:03.661Z,98677.84
2022-10-02T10:09:55.478Z,98635.97
2022-10-02T10:10:45.790Z,98635.97
2022-10-02T10:11:56.401Z,98649.00
2022-10-02T10:12:49.605Z,98641.50
2022-10-02T10:14:04.951Z,98656.84
2022-10-02T10:15:08.635Z,98649.59
2022-10-02T10:15:51.802Z,98657.31
2022-10-02T10:16:51.289Z,98642.25
2022-10-02T10:17:50.908Z,98640.88
2022-10-02T10:18:39.837Z,98640.09
2022-10-02T10:19:32.953Z,98641.41
2022-10-02T10:25:22.513Z,98640.41
2022-10-02T10:26:29.824Z,98640.41
2022-10-02T10:27:38.225Z,98643.28
2022-10-02T10:28:20.146Z,98635.72
2022-10-02T11:00:26.581Z,98624.44
2022-10-02T11:01:14.515Z,98624.44
2022-10-02T11:02:17.429Z,98622.37
2022-10-02T11:03:22.214Z,98621.81
2022-10-02T11:04:09.747Z,98619.91
2022-10-02T12:00:06.060Z,98599.00
2022-10-02T12:01:18.245Z,98599.00
2022-10-02T12:02:49.668Z,98607.31
2022-10-02T12:05:39.074Z,98603.16
2022-10-02T12:27:55.362Z,98602.41
2022-10-02T12:28:36.257Z,98602.41
2022-10-02T12:29:40.996Z,98591.37
2022-10-02T12:30:26.584Z,98586.97
2022-10-02T12:31:15.283Z,98588.31
2022-10-02T12:32:08.452Z,98583.47
2022-10-02T12:32:55.720Z,98585.19
2022-10-02T12:33:56.755Z,98587.12
2022-10-02T12:34:51.124Z,98586.59
2022-10-02T12:35:34.191Z,98582.03
2022-10-02T12:36:27.548Z,98581.38
2022-10-02T12:37:08.214Z,98586.59
2022-10-02T12:38:21.344Z,98581.94
2022-10-02T12:40:01.157Z,98580.06
2022-10-02T13:00:20.898Z,98566.84
2022-10-02T13:01:14.573Z,98566.84
2022-10-02T13:28:20.993Z,98529.47
2022-10-02T13:59:42.899Z,98495.84
2022-10-02T14:00:22.771Z,98495.84
2022-10-02T14:01:39.853Z,98499.91
2022-10-02T14:04:23.495Z,98497.88
2022-10-02T14:05:25.310Z,98496.53
2022-10-02T14:05:57.779Z,98496.62
2022-10-02T14:06:34.934Z,98496.84
2022-10-02T14:07:49.029Z,98485.69
2022-10-02T14:09:25.993Z,98501.63
2022-10-02T14:10:16.451Z,98504.19
2022-10-02T14:11:10.210Z,98511.16
2022-10-02T14:12:07.994Z,98501.16
2022-10-02T14:14:24.891Z,98509.50
2022-10-02T14:15:29.797Z,98502.62
2022-10-02T14:53:52.623Z,98465.22
2022-10-02T14:57:43.970Z,98469.91
2022-10-02T14:59:10.114Z,98456.16
2022-10-02T15:02:46.614Z,98446.81
2022-10-02T15:03:48.674Z,98446.81
2022-10-02T15:05:00.047Z,98459.22
2022-10-02T15:05:39.192Z,98460.19
2022-10-02T15:07:16.669Z,98458.47
2022-10-02T15:08:12.297Z,98460.56
2022-10-02T15:08:50.286Z,98464.91
2022-10-02T15:09:42.620Z,98461.28
2022-10-02T15:10:39.717Z,98465.75
2022-10-02T15:11:23.048Z,98465.09
2022-10-02T15:14:18.293Z,98460.44
2022-10-02T15:26:49.742Z,98438.72
2022-10-02T15:27:30.156Z,98438.72
2022-10-02T15:28:49.557Z,98455.03
2022-10-02T15:29:35.453Z,98450.03
2022-10-02T15:30:18.201Z,98448.66
2022-10-02T15:31:37.624Z,98449.59
2022-10-02T15:32:22.199Z,98459.31
2022-10-02T15:33:33.830Z,98450.12
2022-10-02T15:34:23.939Z,98450.56
2022-10-02T15:35:33.368Z,98449.97
2022-10-02T15:36:50.359Z,98449.09
2022-10-02T15:37:55.635Z,98446.13
2022-10-02T15:38:47.493Z,98442.62
2022-10-02T15:39:29.123Z,98448.03
2022-10-02T15:40:34.898Z,98449.28
2022-10-02T15:41:46.410Z,98446.00
2022-10-02T15:42:30.438Z,98448.13
2022-10-02T15:44:08.595Z,98446.00
2022-10-02T15:45:48.899Z,98440.09
2022-10-02T15:47:19.796Z,98443.47
2022-10-02T16:00:26.034Z,98434.72
2022-10-02T16:01:28.076Z,98434.72
2022-10-02T16:01:53.984Z,98443.28
2022-10-02T16:02:07.040Z,98444.41
2022-10-02T16:02:32.753Z,98437.72
2022-10-02T16:02:57.516Z,98442.81
2022-10-02T16:03:18.478Z,98435.47
2022-10-02T16:04:03.011Z,98432.75
2022-10-02T16:04:44.020Z,98439.56
2022-10-02T16:05:21.989Z,98433.88
2022-10-02T16:05:57.245Z,98435.31
2022-10-02T16:06:32.787Z,98439.09
2022-10-02T16:07:10.370Z,98439.88
2022-10-02T16:07:41.436Z,98443.88
2022-10-02T16:08:32.541Z,98443.56
2022-10-02T16:09:27.725Z,98435.69
2022-10-02T16:09:59.401Z,98439.09
2022-10-02T16:10:24.741Z,98442.38
2022-10-02T16:10:38.147Z,98446.81
2022-10-02T16:11:16.965Z,98437.97
2022-10-02T16:12:08.104Z,98441.69
2022-10-02T16:12:54.633Z,98443.31
2022-10-02T16:13:26.325Z,98442.72
2022-10-02T16:13:43.498Z,98433.44
2022-10-02T16:14:15.388Z,98437.56
2022-10-02T16:14:52.433Z,98433.88
2022-10-02T16:15:27.590Z,98437.03
2022-10-02T16:15:45.816Z,98436.69
2022-10-02T16:16:20.913Z,98435.06
2022-10-02T16:17:11.424Z,98430.41
2022-10-02T16:17:59.912Z,98430.00
2022-10-02T16:18:24.443Z,98429.72
2022-10-02T16:18:55.374Z,98431.97
2022-10-02T16:19:47.774Z,98431.63
2022-10-02T16:20:16.611Z,98428.97
2022-10-02T16:20:38.632Z,98423.19
2022-10-02T16:21:25.593Z,98422.97
2022-10-02T16:21:50.248Z,98422.53
2022-10-02T16:22:22.541Z,98422.78
2022-10-02T16:22:54.227Z,98421.41
2022-10-02T16:24:08.364Z,98419.16
2022-10-02T16:24:52.512Z,98422.63
2022-10-02T16:25:11.662Z,98421.66
2022-10-02T16:25:33.351Z,98420.72
2022-10-02T16:25:50.379Z,98426.47
2022-10-02T16:26:13.869Z,98423.13
2022-10-02T16:26:51.084Z,98433.59
2022-10-02T16:36:58.528Z,98447.81
2022-10-02T16:38:07.511Z,98451.91
2022-10-02T16:38:50.967Z,98444.03
2022-10-02T16:39:59.007Z,98446.41
2022-10-02T16:40:56.974Z,98449.94
2022-10-02T17:48:57.247Z,98397.56
2022-10-02T17:50:17.830Z,98404.78
2022-10-02T17:51:53.114Z,98399.75
2022-10-02T18:08:09.367Z,98392.03
2022-10-02T18:09:08.086Z,98392.03
2022-10-02T18:09:52.738Z,98398.03
2022-10-02T18:10:51.717Z,98395.56
2022-10-02T18:12:51.914Z,98395.78
2022-10-02T18:25:21.888Z,98402.88
2022-10-02T18:26:47.829Z,98402.88
2022-10-02T18:27:18.583Z,98395.34
2022-10-02T18:28:00.385Z,98398.44
2022-10-02T18:28:41.065Z,98390.28
2022-10-02T18:29:55.226Z,98390.06
2022-10-02T18:30:49.847Z,98397.00
2022-10-02T18:31:55.183Z,98401.97
2022-10-02T18:32:45.477Z,98393.91
2022-10-02T18:33:41.050Z,98402.16
2022-10-02T18:48:47.190Z,98411.44
2022-10-02T18:49:01.043Z,98411.44
2022-10-02T18:50:15.030Z,98410.00
2022-10-02T18:51:42.137Z,98404.22
2022-10-02T18:52:25.529Z,98416.13
2022-10-02T18:53:24.865Z,98424.44
2022-10-02T18:54:22.684Z,98426.88
2022-10-02T18:55:34.665Z,98425.69
2022-10-02T18:57:04.308Z,98421.66
2022-10-02T18:57:45.794Z,98422.75
2022-10-02T18:59:15.597Z,98420.09
2022-10-02T19:01:21.886Z,98416.19
2022-10-02T19:02:06.291Z,98418.16
2022-10-02T19:37:18.744Z,98398.22
2022-10-02T19:39:10.688Z,98396.03
2022-10-02T19:42:13.539Z,98388.66
2022-10-02T19:43:00.945Z,98394.94
2022-10-02T20:20:22.384Z,98359.31
2022-10-02T20:21:45.690Z,98359.31
2022-10-02T20:53:26.770Z,98326.97
2022-10-02T20:54:28.638Z,98326.97
2022-10-02T20:55:40.750Z,98332.59
2022-10-02T20:57:59.784Z,98330.97
2022-10-02T20:58:41.169Z,98326.72
2022-10-02T20:59:27.071Z,98333.94
2022-10-02T21:00:15.948Z,98337.56
2022-10-02T21:01:14.946Z,98337.91
2022-10-02T21:02:26.267Z,98343.12
2022-10-02T21:05:31.356Z,98331.63
2022-10-02T21:29:04.268Z,98335.69
2022-10-02T21:29:43.550Z,98335.69
2022-10-02T21:30:20.471Z,98337.06
2022-10-02T21:31:13.238Z,98340.31
2022-10-02T21:32:35.606Z,98337.84
2022-10-02T21:33:32.255Z,98339.56
2022-10-02T21:37:34.826Z,98323.69
2022-10-02T21:38:54.863Z,98324.19
2022-10-02T21:48:29.074Z,98332.97
2022-10-02T21:49:23.647Z,98329.03
2022-10-02T21:50:23.832Z,98328.22
2022-10-02T21:51:31.233Z,98320.50
2022-10-02T22:27:44.068Z,98334.31
2022-10-02T22:28:21.716Z,98334.31
2022-10-02T22:29:08.879Z,98359.41
2022-10-02T22:29:43.710Z,98353.66
2022-10-02T22:30:45.943Z,98356.50
2022-10-02T22:32:46.135Z,98356.63
2022-10-02T22:34:22.541Z,98357.16
2022-10-02T22:35:25.241Z,98366.16
2022-10-02T22:36:21.548Z,98359.00
2022-10-02T22:37:19.090Z,98355.81
2022-10-02T22:38:34.535Z,98361.44
2022-10-02T22:39:59.021Z,98346.53
2022-10-02T23:11:39.168Z,98324.78
2022-10-02T23:12:18.309Z,98325.50
2022-10-02T23:13:09.670Z,98332.87
2022-10-02T23:47:59.778Z,98328.44
2022-10-02T23:48:36.576Z,98328.44
2022-10-02T23:49:31.701Z,98339.72
2022-10-02T23:50:05.211Z,98338.25
2022-10-02T23:51:03.854Z,98340.94
2022-10-02T23:51:48.096Z,98339.69
2022-10-02T23:52:44.909Z,98340.81
2022-10-02T23:54:07.257Z,98332.87
2022-10-02T23:55:51.815Z,98340.59
2022-10-02T23:57:54.857Z,98329.06
2022-10-02T23:59:06.805Z,98338.19
